sensor_id;sensor_type;location;lat;lon;timestamp;pressure;altitude;pressure_sealevel;temperature;humidity
11643;BME280;5877;50.930;6.918;2023-07-24T04:07:23;99840.84;;;19.31;94.71
11643;BME280;5877;50.930;6.918;2023-07-24T04:12:17;99823.38;;;19.06;96.13
11643;BME280;5877;50.930;6.918;2023-07-24T04:17:09;99800.22;;;19.07;95.55
11643;BME280;5877;50.930;6.918;2023-07-24T04:22:03;99836.09;;;19.09;95.90
11643;BME280;5877;50.930;6.918;2023-07-24T04:26:57;99693.44;;;18.20;95.40
11643;BME280;5877;50.930;6.918;2023-07-24T04:31:49;99690.25;;;18.17;96.53
11643;BME280;5877;50.930;6.918;2023-07-24T04:36:44;99813.81;;;19.24;94.05
11643;BME280;5877;50.930;6.918;2023-07-24T04:41:38;99809.41;;;19.14;92.52
11643;BME280;5877;50.930;6.918;2023-07-24T04:46:30;99854.88;;;19.37;92.23
11643;BME280;5877;50.930;6.918;2023-07-24T04:51:25;99840.84;;;19.31;91.86
11643;BME280;5877;50.930;6.918;2023-07-24T04:56:17;99852.56;;;19.30;91.15
11643;BME280;5877;50.930;6.918;2023-07-24T05:01:11;99782.09;;;18.90;91.06
11643;BME280;5877;50.930;6.918;2023-07-24T05:06:04;99820.41;;;19.45;86.26
11643;BME280;5877;50.930;6.918;2023-07-24T05:10:59;99845.03;;;20.35;80.20
11643;BME280;5877;50.930;6.918;2023-07-24T05:15:51;99826.53;;;20.44;76.99
11643;BME280;5877;50.930;6.918;2023-07-24T05:20:48;99857.16;;;21.23;73.92
11643;BME280;5877;50.930;6.918;2023-07-24T05:25:43;99842.78;;;22.22;65.68
11643;BME280;5877;50.930;6.918;2023-07-24T05:30:37;99854.53;;;22.83;63.73
11643;BME280;5877;50.930;6.918;2023-07-24T05:35:29;99877.00;;;24.76;56.44
11643;BME280;5877;50.930;6.918;2023-07-24T05:40:24;99800.09;;;28.25;45.42
11643;BME280;5877;50.930;6.918;2023-07-24T05:45:19;99813.72;;;30.48;40.01
11643;BME280;5877;50.930;6.918;2023-07-24T05:50:13;99866.38;;;30.50;40.28
11643;BME280;5877;50.930;6.918;2023-07-24T05:55:06;99868.44;;;30.11;40.15
11643;BME280;5877;50.930;6.918;2023-07-24T06:00:00;99873.09;;;29.91;40.81
11643;BME280;5877;50.930;6.918;2023-07-24T06:05:01;99850.28;;;28.61;42.50
11643;BME280;5877;50.930;6.918;2023-07-24T06:09:55;99886.00;;;27.79;44.98
11643;BME280;5877;50.930;6.918;2023-07-24T06:14:47;99872.00;;;25.99;47.78
11643;BME280;5877;50.930;6.918;2023-07-24T06:19:42;99892.06;;;24.98;50.52
11643;BME280;5877;50.930;6.918;2023-07-24T06:24:34;99904.44;;;24.81;52.05
11643;BME280;5877;50.930;6.918;2023-07-24T06:29:29;99898.00;;;24.74;52.34
11643;BME280;5877;50.930;6.918;2023-07-24T06:34:23;99840.13;;;24.26;52.72
11643;BME280;5877;50.930;6.918;2023-07-24T06:39:18;99858.25;;;24.20;52.77
11643;BME280;5877;50.930;6.918;2023-07-24T06:44:13;99864.72;;;24.19;53.49
11643;BME280;5877;50.930;6.918;2023-07-24T06:49:06;99816.41;;;23.90;53.48
11643;BME280;5877;50.930;6.918;2023-07-24T06:53:59;99769.22;;;23.34;53.42
11643;BME280;5877;50.930;6.918;2023-07-24T06:58:53;99857.69;;;23.98;53.00
11643;BME280;5877;50.930;6.918;2023-07-24T07:03:46;99865.81;;;24.36;51.68
11643;BME280;5877;50.930;6.918;2023-07-24T07:08:39;99825.38;;;25.41;49.00
11643;BME280;5877;50.930;6.918;2023-07-24T07:13:32;99701.72;;;25.62;46.05
11643;BME280;5877;50.930;6.918;2023-07-24T07:18:27;99863.81;;;27.58;43.87
11643;BME280;5877;50.930;6.918;2023-07-24T07:23:20;99761.94;;;25.94;45.07
11643;BME280;5877;50.930;6.918;2023-07-24T07:28:14;99822.88;;;25.90;46.28
11643;BME280;5877;50.930;6.918;2023-07-24T07:33:08;99775.63;;;25.02;47.85
11643;BME280;5877;50.930;6.918;2023-07-24T07:38:03;99859.53;;;25.20;48.13
11643;BME280;5877;50.930;6.918;2023-07-24T07:42:57;99712.53;;;24.87;47.58
11643;BME280;5877;50.930;6.918;2023-07-24T07:47:55;99813.63;;;26.48;45.51
11643;BME280;5877;50.930;6.918;2023-07-24T07:52:51;99838.56;;;27.50;43.46
11643;BME280;5877;50.930;6.918;2023-07-24T07:57:47;99804.06;;;27.56;43.07
11643;BME280;5877;50.930;6.918;2023-07-24T08:02:39;99803.63;;;27.54;43.73
11643;BME280;5877;50.930;6.918;2023-07-24T08:07:37;99740.34;;;27.20;43.44
11643;BME280;5877;50.930;6.918;2023-07-24T08:12:29;99830.97;;;28.43;41.37
11643;BME280;5877;50.930;6.918;2023-07-24T08:17:27;99799.09;;;27.70;42.78
11643;BME280;5877;50.930;6.918;2023-07-24T08:22:19;99821.81;;;27.57;43.27
11643;BME280;5877;50.930;6.918;2023-07-24T08:27:14;99809.91;;;26.77;44.76
11643;BME280;5877;50.930;6.918;2023-07-24T08:32:08;99737.06;;;25.40;46.34
11643;BME280;5877;50.930;6.918;2023-07-24T08:37:01;99821.53;;;25.84;46.48
11643;BME280;5877;50.930;6.918;2023-07-24T08:41:56;99777.25;;;25.69;45.53
11643;BME280;5877;50.930;6.918;2023-07-24T08:46:51;99783.00;;;27.89;41.64
11643;BME280;5877;50.930;6.918;2023-07-24T08:51:44;99787.53;;;29.22;38.64
11643;BME280;5877;50.930;6.918;2023-07-24T08:56:38;99753.13;;;29.41;38.18
11643;BME280;5877;50.930;6.918;2023-07-24T09:01:32;99798.16;;;28.09;40.14
11643;BME280;5877;50.930;6.918;2023-07-24T09:06:26;99808.16;;;27.93;41.06
11643;BME280;5877;50.930;6.918;2023-07-24T09:11:20;99621.06;;;26.11;41.80
11643;BME280;5877;50.930;6.918;2023-07-24T09:16:25;99746.81;;;27.03;42.01
11643;BME280;5877;50.930;6.918;2023-07-24T09:21:34;99799.47;;;27.56;41.20
11643;BME280;5877;50.930;6.918;2023-07-24T09:26:32;99799.25;;;27.77;40.98
11643;BME280;5877;50.930;6.918;2023-07-24T09:31:35;99742.97;;;27.60;40.71
11643;BME280;5877;50.930;6.918;2023-07-24T09:36:39;99767.66;;;27.62;41.26
11643;BME280;5877;50.930;6.918;2023-07-24T09:41:34;99714.66;;;27.38;41.09
11643;BME280;5877;50.930;6.918;2023-07-24T09:46:27;99762.75;;;27.52;41.24
11643;BME280;5877;50.930;6.918;2023-07-24T09:51:23;99743.16;;;27.67;40.19
11643;BME280;5877;50.930;6.918;2023-07-24T09:56:17;99710.25;;;28.08;39.45
11643;BME280;5877;50.930;6.918;2023-07-24T10:01:10;99697.38;;;28.02;39.22
11643;BME280;5877;50.930;6.918;2023-07-24T10:06:08;99730.84;;;28.32;38.87
11643;BME280;5877;50.930;6.918;2023-07-24T10:11:03;99704.41;;;28.57;38.70
11643;BME280;5877;50.930;6.918;2023-07-24T10:15:56;99682.28;;;29.32;37.15
11643;BME280;5877;50.930;6.918;2023-07-24T10:20:48;99698.38;;;31.10;34.61
11643;BME280;5877;50.930;6.918;2023-07-24T10:25:52;99572.88;;;30.32;34.05
11643;BME280;5877;50.930;6.918;2023-07-24T10:30:55;99659.59;;;30.39;35.02
11643;BME280;5877;50.930;6.918;2023-07-24T10:35:53;99680.34;;;30.88;34.43
11643;BME280;5877;50.930;6.918;2023-07-24T10:40:47;99675.81;;;30.99;33.64
11643;BME280;5877;50.930;6.918;2023-07-24T10:45:49;99665.47;;;30.15;35.49
11643;BME280;5877;50.930;6.918;2023-07-24T10:50:49;99666.19;;;29.85;36.23
11643;BME280;5877;50.930;6.918;2023-07-24T10:55:46;99658.81;;;28.75;38.32
11643;BME280;5877;50.930;6.918;2023-07-24T11:00:45;99634.50;;;27.66;46.79
11643;BME280;5877;50.930;6.918;2023-07-24T11:05:43;99608.69;;;26.90;50.76
11643;BME280;5877;50.930;6.918;2023-07-24T11:10:37;99594.63;;;27.91;44.49
11643;BME280;5877;50.930;6.918;2023-07-24T11:15:30;99608.25;;;27.98;42.20
11643;BME280;5877;50.930;6.918;2023-07-24T11:20:23;99489.84;;;27.74;40.83
11643;BME280;5877;50.930;6.918;2023-07-24T11:25:16;99566.44;;;29.08;41.51
11643;BME280;5877;50.930;6.918;2023-07-24T11:30:08;99550.47;;;29.75;38.66
11643;BME280;5877;50.930;6.918;2023-07-24T11:35:01;99526.75;;;29.38;39.38
11643;BME280;5877;50.930;6.918;2023-07-24T11:39:57;99614.94;;;28.82;38.86
11643;BME280;5877;50.930;6.918;2023-07-24T11:44:50;99657.47;;;23.43;73.09
11643;BME280;5877;50.930;6.918;2023-07-24T11:49:42;99647.31;;;22.15;82.68
11643;BME280;5877;50.930;6.918;2023-07-24T11:54:41;99690.34;;;21.65;89.67
11643;BME280;5877;50.930;6.918;2023-07-24T11:59:37;99715.09;;;22.19;85.46
11643;BME280;5877;50.930;6.918;2023-07-24T12:04:31;99717.88;;;22.06;95.64
11643;BME280;5877;50.930;6.918;2023-07-24T12:09:29;99652.94;;;22.05;97.08
11643;BME280;5877;50.930;6.918;2023-07-24T12:14:22;99611.94;;;22.79;92.50
11643;BME280;5877;50.930;6.918;2023-07-24T12:19:15;99696.31;;;23.19;73.15
11643;BME280;5877;50.930;6.918;2023-07-24T12:24:09;99724.59;;;23.55;77.00
11643;BME280;5877;50.930;6.918;2023-07-24T12:29:01;99721.09;;;23.63;75.29
11643;BME280;5877;50.930;6.918;2023-07-24T12:33:54;99702.75;;;23.82;70.59
11643;BME280;5877;50.930;6.918;2023-07-24T12:38:53;99721.75;;;23.98;70.24
11643;BME280;5877;50.930;6.918;2023-07-24T12:43:53;99703.88;;;23.73;66.82
11643;BME280;5877;50.930;6.918;2023-07-24T12:48:45;99563.19;;;22.13;71.63
11643;BME280;5877;50.930;6.918;2023-07-24T12:53:40;99657.91;;;22.63;72.13
11643;BME280;5877;50.930;6.918;2023-07-24T12:58:54;99695.66;;;22.62;69.46
11643;BME280;5877;50.930;6.918;2023-07-24T13:04:00;99719.63;;;23.10;71.22
11643;BME280;5877;50.930;6.918;2023-07-24T13:08:53;99670.41;;;23.41;75.04
11643;BME280;5877;50.930;6.918;2023-07-24T13:13:44;99653.28;;;23.33;84.53
11643;BME280;5877;50.930;6.918;2023-07-24T13:18:37;99656.44;;;24.32;69.96
11643;BME280;5877;50.930;6.918;2023-07-24T13:23:29;99666.09;;;23.95;71.62
11643;BME280;5877;50.930;6.918;2023-07-24T13:28:22;99596.59;;;23.90;66.00
11643;BME280;5877;50.930;6.918;2023-07-24T13:33:16;99626.59;;;24.75;60.51
11643;BME280;5877;50.930;6.918;2023-07-24T13:38:08;99586.50;;;24.37;61.54
11643;BME280;5877;50.930;6.918;2023-07-24T13:43:01;99646.69;;;25.35;61.00
11643;BME280;5877;50.930;6.918;2023-07-24T13:47:56;99625.34;;;25.51;60.39
11643;BME280;5877;50.930;6.918;2023-07-24T13:52:51;99581.00;;;25.33;58.60
11643;BME280;5877;50.930;6.918;2023-07-24T13:57:43;99611.72;;;24.99;63.22
11643;BME280;5877;50.930;6.918;2023-07-24T14:02:36;99650.09;;;24.37;67.59
11643;BME280;5877;50.930;6.918;2023-07-24T14:07:31;99604.13;;;23.67;74.52
11643;BME280;5877;50.930;6.918;2023-07-24T14:12:24;99656.19;;;23.49;82.72
11643;BME280;5877;50.930;6.918;2023-07-24T14:17:17;99666.09;;;23.66;69.28
11643;BME280;5877;50.930;6.918;2023-07-24T14:22:11;99578.25;;;23.71;62.05
11643;BME280;5877;50.930;6.918;2023-07-24T14:27:03;99684.59;;;24.88;59.77
11643;BME280;5877;50.930;6.918;2023-07-24T14:31:56;99688.13;;;24.39;66.62
11643;BME280;5877;50.930;6.918;2023-07-24T14:36:49;99671.09;;;24.35;67.10
11643;BME280;5877;50.930;6.918;2023-07-24T14:41:41;99614.53;;;23.98;65.41
11643;BME280;5877;50.930;6.918;2023-07-24T14:46:36;99673.53;;;24.19;66.86
11643;BME280;5877;50.930;6.918;2023-07-24T14:51:28;99673.53;;;24.27;66.28
11643;BME280;5877;50.930;6.918;2023-07-24T14:56:22;99674.91;;;24.34;66.64
11643;BME280;5877;50.930;6.918;2023-07-24T15:01:15;99670.06;;;24.69;66.33
11643;BME280;5877;50.930;6.918;2023-07-24T15:06:10;99665.34;;;24.45;59.35
11643;BME280;5877;50.930;6.918;2023-07-24T15:11:02;99636.38;;;24.92;56.64
11643;BME280;5877;50.930;6.918;2023-07-24T15:15:56;99650.28;;;26.12;52.75
11643;BME280;5877;50.930;6.918;2023-07-24T15:20:50;99639.25;;;26.54;51.43
11643;BME280;5877;50.930;6.918;2023-07-24T15:25:43;99676.81;;;26.50;50.76
11643;BME280;5877;50.930;6.918;2023-07-24T15:30:35;99666.44;;;26.37;49.62
11643;BME280;5877;50.930;6.918;2023-07-24T15:35:29;99686.03;;;26.25;50.65
11643;BME280;5877;50.930;6.918;2023-07-24T15:40:22;99679.78;;;26.09;49.92
11643;BME280;5877;50.930;6.918;2023-07-24T15:45:17;99634.38;;;26.07;49.34
11643;BME280;5877;50.930;6.918;2023-07-24T15:50:11;99563.94;;;25.04;49.83
11643;BME280;5877;50.930;6.918;2023-07-24T15:55:05;99613.00;;;24.92;49.67
11643;BME280;5877;50.930;6.918;2023-07-24T15:59:59;99710.72;;;25.78;49.05
11643;BME280;5877;50.930;6.918;2023-07-24T16:04:52;99716.00;;;25.75;49.02
11643;BME280;5877;50.930;6.918;2023-07-24T16:09:45;99693.31;;;26.25;47.66
11643;BME280;5877;50.930;6.918;2023-07-24T16:14:40;99718.22;;;26.34;46.85
11643;BME280;5877;50.930;6.918;2023-07-24T16:19:35;99677.28;;;25.55;46.62
11643;BME280;5877;50.930;6.918;2023-07-24T16:24:33;99712.28;;;25.34;46.74
11643;BME280;5877;50.930;6.918;2023-07-24T16:29:26;99649.09;;;25.04;46.47
11643;BME280;5877;50.930;6.918;2023-07-24T16:34:22;99668.56;;;24.80;46.74
11643;BME280;5877;50.930;6.918;2023-07-24T16:39:17;99708.53;;;24.93;46.19
11643;BME280;5877;50.930;6.918;2023-07-24T16:44:10;99713.25;;;24.55;46.31
11643;BME280;5877;50.930;6.918;2023-07-24T16:49:07;99700.97;;;24.75;45.17
11643;BME280;5877;50.930;6.918;2023-07-24T16:54:02;99677.53;;;24.42;45.31
11643;BME280;5877;50.930;6.918;2023-07-24T16:58:55;99724.56;;;24.40;45.63
11643;BME280;5877;50.930;6.918;2023-07-24T17:03:48;99765.19;;;23.74;48.72
11643;BME280;5877;50.930;6.918;2023-07-24T17:08:46;99770.44;;;22.19;55.96
11643;BME280;5877;50.930;6.918;2023-07-24T17:13:41;99791.78;;;21.57;59.57
11643;BME280;5877;50.930;6.918;2023-07-24T17:18:34;99792.94;;;21.06;66.74
11643;BME280;5877;50.930;6.918;2023-07-24T17:23:29;99782.19;;;20.61;72.09
11643;BME280;5877;50.930;6.918;2023-07-24T17:28:23;99746.75;;;19.41;75.61
11643;BME280;5877;50.930;6.918;2023-07-24T17:33:16;99845.25;;;19.92;79.12
11643;BME280;5877;50.930;6.918;2023-07-24T17:38:09;99843.50;;;19.69;81.35
11643;BME280;5877;50.930;6.918;2023-07-24T17:43:03;99815.81;;;19.32;80.92
11643;BME280;5877;50.930;6.918;2023-07-24T17:47:55;99882.66;;;19.68;77.65
11643;BME280;5877;50.930;6.918;2023-07-24T17:52:48;99887.38;;;19.34;79.74
11643;BME280;5877;50.930;6.918;2023-07-24T17:57:40;99767.06;;;18.57;79.90
11643;BME280;5877;50.930;6.918;2023-07-24T18:02:33;99875.88;;;19.38;79.13
11643;BME280;5877;50.930;6.918;2023-07-24T18:07:26;99842.78;;;19.44;76.87
11643;BME280;5877;50.930;6.918;2023-07-24T18:12:19;99863.56;;;20.13;73.86
11643;BME280;5877;50.930;6.918;2023-07-24T18:17:12;99841.56;;;20.07;71.93
11643;BME280;5877;50.930;6.918;2023-07-24T18:22:04;99878.34;;;20.05;72.33
11643;BME280;5877;50.930;6.918;2023-07-24T18:26:57;99872.50;;;19.70;73.74
11643;BME280;5877;50.930;6.918;2023-07-24T18:31:50;99840.50;;;19.57;73.53
11643;BME280;5877;50.930;6.918;2023-07-24T18:36:49;99865.44;;;19.42;73.97
11643;BME280;5877;50.930;6.918;2023-07-24T18:41:41;99878.25;;;19.21;74.02
11643;BME280;5877;50.930;6.918;2023-07-24T18:46:38;99824.19;;;18.83;74.63
11643;BME280;5877;50.930;6.918;2023-07-24T18:51:30;99898.22;;;19.19;75.04
11643;BME280;5877;50.930;6.918;2023-07-24T18:56:25;99909.00;;;19.08;77.54
11643;BME280;5877;50.930;6.918;2023-07-24T19:01:21;99912.78;;;19.02;78.49
11643;BME280;5877;50.930;6.918;2023-07-24T19:06:15;99888.19;;;18.68;79.92
11643;BME280;5877;50.930;6.918;2023-07-24T19:11:12;99907.75;;;18.77;80.69
11643;BME280;5877;50.930;6.918;2023-07-24T19:16:05;99902.00;;;18.70;80.40
11643;BME280;5877;50.930;6.918;2023-07-24T19:20:58;99887.91;;;18.40;80.41
11643;BME280;5877;50.930;6.918;2023-07-24T19:25:53;99937.53;;;18.79;79.91
11643;BME280;5877;50.930;6.918;2023-07-24T19:30:53;99936.81;;;18.39;82.36
11643;BME280;5877;50.930;6.918;2023-07-24T19:35:49;99930.44;;;18.11;84.79
11643;BME280;5877;50.930;6.918;2023-07-24T19:40:41;99949.66;;;17.98;87.45
11643;BME280;5877;50.930;6.918;2023-07-24T19:45:39;99960.88;;;17.85;89.90
11643;BME280;5877;50.930;6.918;2023-07-24T19:50:31;99968.69;;;18.10;87.58
11643;BME280;5877;50.930;6.918;2023-07-24T19:55:23;99973.53;;;17.98;89.27
11643;BME280;5877;50.930;6.918;2023-07-24T20:00:19;99962.31;;;18.11;86.34
11643;BME280;5877;50.930;6.918;2023-07-24T20:05:22;99989.00;;;18.25;85.13
11643;BME280;5877;50.930;6.918;2023-07-24T20:10:15;99961.38;;;17.92;86.62
11643;BME280;5877;50.930;6.918;2023-07-24T20:15:08;99934.53;;;17.49;89.56
11643;BME280;5877;50.930;6.918;2023-07-24T20:20:00;99875.53;;;17.18;88.63
11643;BME280;5877;50.930;6.918;2023-07-24T20:24:53;99915.63;;;17.66;86.58
11643;BME280;5877;50.930;6.918;2023-07-24T20:29:46;99995.81;;;18.36;84.72
11643;BME280;5877;50.930;6.918;2023-07-24T20:34:38;99982.81;;;18.35;84.17
11643;BME280;5877;50.930;6.918;2023-07-24T20:39:31;99991.44;;;18.50;82.99
11643;BME280;5877;50.930;6.918;2023-07-24T20:44:23;100001.00;;;18.52;82.60
11643;BME280;5877;50.930;6.918;2023-07-24T20:49:17;100015.84;;;18.63;83.64
11643;BME280;5877;50.930;6.918;2023-07-24T20:54:12;99871.34;;;17.96;81.37
11643;BME280;5877;50.930;6.918;2023-07-24T20:59:05;100001.09;;;18.75;80.88
11643;BME280;5877;50.930;6.918;2023-07-24T21:03:58;99985.03;;;18.23;84.74
11643;BME280;5877;50.930;6.918;2023-07-24T21:08:52;99972.75;;;17.98;87.48
11643;BME280;5877;50.930;6.918;2023-07-24T21:13:45;100011.28;;;18.29;86.75
11643;BME280;5877;50.930;6.918;2023-07-24T21:18:39;99951.50;;;17.98;86.73
11643;BME280;5877;50.930;6.918;2023-07-24T21:23:31;100009.53;;;18.48;85.42
11643;BME280;5877;50.930;6.918;2023-07-24T21:28:24;100010.25;;;18.25;86.53
11643;BME280;5877;50.930;6.918;2023-07-24T21:33:17;100001.72;;;17.94;87.67
11643;BME280;5877;50.930;6.918;2023-07-24T21:38:11;99929.91;;;17.70;86.74
11643;BME280;5877;50.930;6.918;2023-07-24T21:43:04;100023.50;;;18.30;86.72
11643;BME280;5877;50.930;6.918;2023-07-24T21:47:58;99955.84;;;17.83;87.02
11643;BME280;5877;50.930;6.918;2023-07-24T21:52:53;100013.69;;;18.26;86.97
11643;BME280;5877;50.930;6.918;2023-07-24T21:57:47;99963.59;;;17.75;88.26
11643;BME280;5877;50.930;6.918;2023-07-24T22:02:41;100014.25;;;18.23;87.90
11643;BME280;5877;50.930;6.918;2023-07-24T22:07:34;99964.72;;;18.08;85.70
11643;BME280;5877;50.930;6.918;2023-07-24T22:12:27;100006.22;;;18.33;85.63
11643;BME280;5877;50.930;6.918;2023-07-24T22:22:46;100022.47;;;18.65;83.42
11643;BME280;5877;50.930;6.918;2023-07-24T22:27:43;100018.81;;;18.51;83.33
11643;BME280;5877;50.930;6.918;2023-07-24T22:32:36;100029.09;;;18.68;82.68
11643;BME280;5877;50.930;6.918;2023-07-24T22:37:30;99992.94;;;18.33;84.07
11643;BME280;5877;50.930;6.918;2023-07-24T22:42:23;100017.00;;;18.46;84.16
11643;BME280;5877;50.930;6.918;2023-07-24T22:47:16;100000.72;;;18.53;83.09
11643;BME280;5877;50.930;6.918;2023-07-24T22:52:12;99970.16;;;18.22;83.71
11643;BME280;5877;50.930;6.918;2023-07-24T22:57:09;100032.28;;;18.65;83.23
11643;BME280;5877;50.930;6.918;2023-07-24T23:02:01;99990.44;;;18.46;82.71
11643;BME280;5877;50.930;6.918;2023-07-24T23:06:55;99949.09;;;18.30;81.20
11643;BME280;5877;50.930;6.918;2023-07-24T23:11:47;100019.47;;;18.72;80.47
11643;BME280;5877;50.930;6.918;2023-07-24T23:16:41;99980.91;;;18.40;80.71
11643;BME280;5877;50.930;6.918;2023-07-24T23:21:34;100030.94;;;18.67;80.77
11643;BME280;5877;50.930;6.918;2023-07-24T23:26:27;100024.84;;;18.67;80.51
11643;BME280;5877;50.930;6.918;2023-07-24T23:31:19;100019.47;;;18.72;78.82
11643;BME280;5877;50.930;6.918;2023-07-24T23:36:11;99985.19;;;18.36;77.84
11643;BME280;5877;50.930;6.918;2023-07-24T23:41:05;100033.94;;;18.56;77.06
11643;BME280;5877;50.930;6.918;2023-07-24T23:45:59;100039.53;;;18.54;76.86
11643;BME280;5877;50.930;6.918;2023-07-24T23:50:52;100023.78;;;18.29;77.23
11643;BME280;5877;50.930;6.918;2023-07-24T23:55:44;100031.88;;;18.47;77.26
